Relevés horaires Spa / La Sauveniere (Belgique)


Relevés horaires à Spa / La Sauveniere - Lundi 18 Oct. 2021
Heure UTC1 Température [°C] Vent [km/h] Hum. [%] Pres.4 [hPa] Visi. [Km] Nébu. [octa] Préc.5 [mm] Cond.
2m. Res. Ros. Dir.2 Vit. Moy. Raf.3
23:00 10.4 9.2 7.8 S 9.3 9.3 14.8 84 1021.8(-0.6/3h) 21 0/8 -- --
22:00 10.2 9 7.0 S 9.3 11.1 18.5 81 1022.2(-0.4/3h) 20 0/8 -- --
21:00 9.9 8.6 7.8 S 9.3 13.0 16.7 87 1022.3(0.2/3h) 18 0/8 -- --
20:00 9.8 8.2 7.4 SSE 11.1 13.0 16.7 85 1022.6(0.1/3h) 19 0/8 -- --
19:00 9.9 9 7.2 SSE 7.4 11.1 16.7 83 1022.7(0.3/3h) 22 0/8 -- --
18:00 10.1 8.6 6.9 SSE 11.1 11.1 16.7 80 1022.5(0.3/3h) 24 0/8 0/12h
--
17:00 10.7 9.6 6.5 SSE 9.3 11.1 14.8 75 1022.3(0.2/3h) 30 0/8 -- --
16:00 11.4 10.4 6.2 SSE 9.3 9.3 16.7 70 1022.1(-0.4/3h) 40 0/8 -- --
15:00 12.6 11.8 6.7 S 9.3 9.3 16.7 67 1021.7(-1.0/3h) 35 0/8 -- --
14:00 12.9 12.5 6.0 S 7.4 7.4 14.8 63 1021.7(-1.1/3h) 45 0/8 -- --
13:00 13.1 12.8 6.9 SE 7.4 9.3 13.0 66 1022.3(-0.8/3h) 35 0/8 -- --
12:00 13.0 12.6 5.8 S 7.4 14.8 20.4 62 1022.6(-0.3/3h) 30 0/8 0/6h
--
11:00 10.9 9.5 5.4 SSE 11.1 13.0 18.5 69 1023.2(0.1/3h) 25 0/8 -- --
10:00 10.8 9.1 5.2 SSE 13.0 14.8 20.4 68 1023.6(0.9/3h) 30 0/8 -- --
09:00 8.8 6.7 4.8 SSE 13.0 14.8 20.4 76 1023.9(1.1/3h) 20 0/8 -- --
08:00 6.9 4.1 4.0 SSE 14.8 14.8 20.4 82 1024(0.9/3h) 12 0/8 -- --
07:00 5.8 3.1 4.9 SSE 13.0 14.8 20.4 94 1023.7(0.6/3h) -- 0/8 -- --
06:00 5.6 3.2 4.9 SSE 11.1 14.8 18.5 95 1023.3(0.2/3h) -- 0/8 0/12h
--
05:00 5.9 3.2 4.3 SSE 13.0 14.8 18.5 89 1023.2(0.0/3h) -- 0/8 -- --
04:00 6.2 3.5 4.4 SSE 13.0 13.0 16.7 88 1023.1(-0.4/3h) -- 0/8 -- --
03:00 6.3 4 4.4 SSE 11.1 13.0 16.7 88 1022.9(-0.5/3h) -- 0/8 -- --
02:00 6.5 4.6 5.1 SSE 9.3 11.1 14.8 91 1023.1(-0.3/3h) 9 0/8 -- --
01:00 6.1 4.6 4.4 SSE 7.4 7.4 11.1 89 1023.5(0.6/3h) 12 0/8 -- --
00:00 5.0 3.9 4.2 SE 5.6 7.4 9.3 95 1023.8(0.5/3h) 11 0/8 0/6h
0/24h
--

1 Coordinated Universal Time. Actuellement il est 01:00 locale et 23:00 UTC.

2 Le vent souffle depuis la direction indiquée vers la direction oposée.

3 Les rafales max. sont disponible 40 min après l'heure du relevé.

4 Pour les stations d'altitude (plus de 600m) le géopotentiel du niveau le plus proche de la pression obligatoire est indiqué.

5 Les stations disposant d'un diffuseur peuvent indiquer "trace". Cela signifie que des précipitations ont touchés le sol mais que la quantité est inférieure à 0.1 mm.

Récapitulatif de la journée
Température [°C] Vent [km/h] Ensoleillement4 [h] Precipitations totale5 [mm] Pression [Hpa]
Min1 Max.2 Moy.3 Max. Min Max.
5.0 13.9 11.8 20.4 0 h 0 min 0 1021.7 1024.0

1 Température minimale relevée entre 18:00 UTC la veille et 18:00 UTC le jour donné.

2 Température maximale relevée entre 06:00 UTC le jour donné et 06:00 UTC le lendemain.

3 Vent moyen de la journée basé sur les relevés horaires.

4 Ensoleillement en heures relevé entre 06:00 UTC la veille et 06:00 UTC le jour donné.

5 Précipitations totales tombées entre 06:00 UTC la jour donné et 06:00 UTC le lendemain.

Graphiques horaires